sensor_id;sensor_type;location;lat;lon;timestamp;P1;durP1;ratioP1;P2;durP2;ratioP2
48897;SDS011;34713;50.038;20.000;2024-03-02T00:00:20;56.20;;;35.70;;
48897;SDS011;34713;50.038;20.000;2024-03-02T00:03:07;61.80;;;36.40;;
48897;SDS011;34713;50.038;20.000;2024-03-02T00:05:35;59.40;;;36.50;;
48897;SDS011;34713;50.038;20.000;2024-03-02T00:08:02;60.50;;;36.10;;
48897;SDS011;34713;50.038;20.000;2024-03-02T00:13:06;55.00;;;35.20;;
48897;SDS011;34713;50.038;20.000;2024-03-02T00:18:12;60.10;;;35.20;;
48897;SDS011;34713;50.038;20.000;2024-03-02T00:20:41;60.40;;;35.50;;
48897;SDS011;34713;50.038;20.000;2024-03-02T00:23:08;55.30;;;34.90;;
48897;SDS011;34713;50.038;20.000;2024-03-02T00:25:53;57.00;;;35.90;;
48897;SDS011;34713;50.038;20.000;2024-03-02T00:28:21;55.90;;;35.40;;
48897;SDS011;34713;50.038;20.000;2024-03-02T00:33:23;59.50;;;36.90;;
48897;SDS011;34713;50.038;20.000;2024-03-02T00:35:51;56.50;;;35.70;;
48897;SDS011;34713;50.038;20.000;2024-03-02T00:38:18;60.20;;;35.20;;
48897;SDS011;34713;50.038;20.000;2024-03-02T00:40:45;52.50;;;34.30;;
48897;SDS011;34713;50.038;20.000;2024-03-02T00:46:18;63.70;;;41.10;;
48897;SDS011;34713;50.038;20.000;2024-03-02T00:48:52;63.10;;;37.70;;
48897;SDS011;34713;50.038;20.000;2024-03-02T00:51:24;62.30;;;38.90;;
48897;SDS011;34713;50.038;20.000;2024-03-02T00:53:52;59.70;;;36.40;;
48897;SDS011;34713;50.038;20.000;2024-03-02T00:56:22;60.00;;;36.70;;
48897;SDS011;34713;50.038;20.000;2024-03-02T00:58:49;60.80;;;35.40;;
48897;SDS011;34713;50.038;20.000;2024-03-02T01:01:16;54.50;;;34.40;;
48897;SDS011;34713;50.038;20.000;2024-03-02T01:03:43;57.50;;;36.20;;
48897;SDS011;34713;50.038;20.000;2024-03-02T01:06:10;57.70;;;36.20;;
48897;SDS011;34713;50.038;20.000;2024-03-02T01:08:36;61.70;;;36.60;;
48897;SDS011;34713;50.038;20.000;2024-03-02T01:11:03;56.20;;;35.60;;
48897;SDS011;34713;50.038;20.000;2024-03-02T01:13:31;59.70;;;36.30;;
48897;SDS011;34713;50.038;20.000;2024-03-02T01:15:57;59.90;;;38.40;;
48897;SDS011;34713;50.038;20.000;2024-03-02T01:18:24;66.00;;;42.90;;
48897;SDS011;34713;50.038;20.000;2024-03-02T01:20:51;73.70;;;44.30;;
48897;SDS011;34713;50.038;20.000;2024-03-02T01:23:19;66.30;;;45.20;;
48897;SDS011;34713;50.038;20.000;2024-03-02T01:25:48;68.60;;;45.80;;
48897;SDS011;34713;50.038;20.000;2024-03-02T01:28:15;65.70;;;44.30;;
48897;SDS011;34713;50.038;20.000;2024-03-02T01:30:41;65.50;;;44.40;;
48897;SDS011;34713;50.038;20.000;2024-03-02T01:33:08;65.70;;;45.20;;
48897;SDS011;34713;50.038;20.000;2024-03-02T01:35:35;68.40;;;44.90;;
48897;SDS011;34713;50.038;20.000;2024-03-02T01:38:02;74.10;;;45.80;;
48897;SDS011;34713;50.038;20.000;2024-03-02T01:40:29;67.60;;;46.00;;
48897;SDS011;34713;50.038;20.000;2024-03-02T01:42:56;72.80;;;46.60;;
48897;SDS011;34713;50.038;20.000;2024-03-02T01:45:24;71.70;;;45.70;;
48897;SDS011;34713;50.038;20.000;2024-03-02T01:47:50;64.50;;;42.50;;
48897;SDS011;34713;50.038;20.000;2024-03-02T01:50:26;62.00;;;39.50;;
48897;SDS011;34713;50.038;20.000;2024-03-02T01:52:55;57.30;;;36.60;;
48897;SDS011;34713;50.038;20.000;2024-03-02T01:55:22;56.30;;;36.70;;
48897;SDS011;34713;50.038;20.000;2024-03-02T01:57:49;58.30;;;35.10;;
48897;SDS011;34713;50.038;20.000;2024-03-02T02:00:19;53.30;;;32.90;;
48897;SDS011;34713;50.038;20.000;2024-03-02T02:02:46;49.90;;;33.90;;
48897;SDS011;34713;50.038;20.000;2024-03-02T02:05:14;51.00;;;32.30;;
48897;SDS011;34713;50.038;20.000;2024-03-02T02:07:41;48.90;;;32.80;;
48897;SDS011;34713;50.038;20.000;2024-03-02T02:10:09;54.00;;;32.30;;
48897;SDS011;34713;50.038;20.000;2024-03-02T02:12:38;53.60;;;33.70;;
48897;SDS011;34713;50.038;20.000;2024-03-02T02:17:54;49.50;;;31.90;;
48897;SDS011;34713;50.038;20.000;2024-03-02T02:20:22;55.30;;;33.40;;
48897;SDS011;34713;50.038;20.000;2024-03-02T02:23:01;51.80;;;31.90;;
48897;SDS011;34713;50.038;20.000;2024-03-02T02:25:29;52.70;;;33.30;;
48897;SDS011;34713;50.038;20.000;2024-03-02T02:27:56;50.00;;;33.00;;
48897;SDS011;34713;50.038;20.000;2024-03-02T02:30:27;51.90;;;31.30;;
48897;SDS011;34713;50.038;20.000;2024-03-02T02:32:54;52.10;;;30.50;;
48897;SDS011;34713;50.038;20.000;2024-03-02T02:35:21;50.80;;;31.00;;
48897;SDS011;34713;50.038;20.000;2024-03-02T02:37:50;50.70;;;33.20;;
48897;SDS011;34713;50.038;20.000;2024-03-02T02:40:17;48.00;;;31.30;;
48897;SDS011;34713;50.038;20.000;2024-03-02T02:42:45;57.20;;;33.20;;
48897;SDS011;34713;50.038;20.000;2024-03-02T02:45:11;50.70;;;31.30;;
48897;SDS011;34713;50.038;20.000;2024-03-02T02:47:41;48.20;;;31.30;;
48897;SDS011;34713;50.038;20.000;2024-03-02T02:50:08;44.40;;;29.40;;
48897;SDS011;34713;50.038;20.000;2024-03-02T02:52:35;47.20;;;29.20;;
48897;SDS011;34713;50.038;20.000;2024-03-02T02:55:03;50.90;;;29.70;;
48897;SDS011;34713;50.038;20.000;2024-03-02T02:57:33;48.30;;;29.20;;
48897;SDS011;34713;50.038;20.000;2024-03-02T03:00:05;48.90;;;31.00;;
48897;SDS011;34713;50.038;20.000;2024-03-02T03:02:37;48.80;;;29.30;;
48897;SDS011;34713;50.038;20.000;2024-03-02T03:05:05;46.50;;;30.00;;
48897;SDS011;34713;50.038;20.000;2024-03-02T03:07:32;46.20;;;28.60;;
48897;SDS011;34713;50.038;20.000;2024-03-02T03:10:00;46.20;;;30.20;;
48897;SDS011;34713;50.038;20.000;2024-03-02T03:12:27;47.90;;;29.60;;
48897;SDS011;34713;50.038;20.000;2024-03-02T03:14:54;44.40;;;28.90;;
48897;SDS011;34713;50.038;20.000;2024-03-02T03:17:23;45.80;;;28.80;;
48897;SDS011;34713;50.038;20.000;2024-03-02T03:19:50;46.60;;;28.60;;
48897;SDS011;34713;50.038;20.000;2024-03-02T03:22:16;47.80;;;29.90;;
48897;SDS011;34713;50.038;20.000;2024-03-02T03:24:43;49.90;;;30.00;;
48897;SDS011;34713;50.038;20.000;2024-03-02T03:27:10;46.30;;;30.20;;
48897;SDS011;34713;50.038;20.000;2024-03-02T03:29:37;50.10;;;29.50;;
48897;SDS011;34713;50.038;20.000;2024-03-02T03:32:04;45.50;;;29.60;;
48897;SDS011;34713;50.038;20.000;2024-03-02T03:34:33;46.30;;;30.10;;
48897;SDS011;34713;50.038;20.000;2024-03-02T03:37:00;44.40;;;29.20;;
48897;SDS011;34713;50.038;20.000;2024-03-02T03:39:26;42.90;;;29.20;;
48897;SDS011;34713;50.038;20.000;2024-03-02T03:41:53;42.70;;;28.70;;
48897;SDS011;34713;50.038;20.000;2024-03-02T03:44:19;45.00;;;28.70;;
48897;SDS011;34713;50.038;20.000;2024-03-02T03:46:46;48.00;;;29.30;;
48897;SDS011;34713;50.038;20.000;2024-03-02T03:49:12;44.70;;;28.60;;
48897;SDS011;34713;50.038;20.000;2024-03-02T03:51:39;44.60;;;28.00;;
48897;SDS011;34713;50.038;20.000;2024-03-02T03:54:05;45.50;;;28.80;;
48897;SDS011;34713;50.038;20.000;2024-03-02T03:56:32;45.00;;;28.90;;
48897;SDS011;34713;50.038;20.000;2024-03-02T03:58:59;49.60;;;31.20;;
48897;SDS011;34713;50.038;20.000;2024-03-02T04:01:26;47.80;;;31.50;;
48897;SDS011;34713;50.038;20.000;2024-03-02T04:03:52;51.30;;;34.60;;
48897;SDS011;34713;50.038;20.000;2024-03-02T04:06:18;49.30;;;31.70;;
48897;SDS011;34713;50.038;20.000;2024-03-02T04:08:45;53.10;;;34.10;;
48897;SDS011;34713;50.038;20.000;2024-03-02T04:11:11;51.00;;;31.30;;
48897;SDS011;34713;50.038;20.000;2024-03-02T04:13:38;46.80;;;30.80;;
48897;SDS011;34713;50.038;20.000;2024-03-02T04:16:05;46.60;;;31.50;;
48897;SDS011;34713;50.038;20.000;2024-03-02T04:18:31;42.70;;;29.40;;
48897;SDS011;34713;50.038;20.000;2024-03-02T04:21:01;44.30;;;29.20;;
48897;SDS011;34713;50.038;20.000;2024-03-02T04:23:27;48.90;;;30.10;;
48897;SDS011;34713;50.038;20.000;2024-03-02T04:25:54;43.40;;;27.80;;
48897;SDS011;34713;50.038;20.000;2024-03-02T04:28:20;49.10;;;29.30;;
48897;SDS011;34713;50.038;20.000;2024-03-02T04:30:47;44.10;;;28.30;;
48897;SDS011;34713;50.038;20.000;2024-03-02T04:33:13;44.80;;;28.90;;
48897;SDS011;34713;50.038;20.000;2024-03-02T04:35:40;40.00;;;28.00;;
48897;SDS011;34713;50.038;20.000;2024-03-02T04:38:07;44.60;;;26.20;;
48897;SDS011;34713;50.038;20.000;2024-03-02T04:40:33;44.50;;;28.80;;
48897;SDS011;34713;50.038;20.000;2024-03-02T04:42:59;45.10;;;27.30;;
48897;SDS011;34713;50.038;20.000;2024-03-02T04:45:26;40.30;;;26.60;;
48897;SDS011;34713;50.038;20.000;2024-03-02T04:47:53;41.20;;;24.40;;
48897;SDS011;34713;50.038;20.000;2024-03-02T04:50:19;45.30;;;26.60;;
48897;SDS011;34713;50.038;20.000;2024-03-02T04:52:46;43.60;;;26.20;;
48897;SDS011;34713;50.038;20.000;2024-03-02T04:55:12;41.90;;;26.80;;
48897;SDS011;34713;50.038;20.000;2024-03-02T04:57:42;38.10;;;25.30;;
48897;SDS011;34713;50.038;20.000;2024-03-02T05:00:09;42.50;;;26.40;;
48897;SDS011;34713;50.038;20.000;2024-03-02T05:02:36;40.00;;;27.20;;
48897;SDS011;34713;50.038;20.000;2024-03-02T05:05:03;44.80;;;28.30;;
48897;SDS011;34713;50.038;20.000;2024-03-02T05:07:29;44.60;;;29.60;;
48897;SDS011;34713;50.038;20.000;2024-03-02T05:09:56;42.90;;;29.20;;
48897;SDS011;34713;50.038;20.000;2024-03-02T05:12:22;47.20;;;29.60;;
48897;SDS011;34713;50.038;20.000;2024-03-02T05:15:07;43.70;;;28.20;;
48897;SDS011;34713;50.038;20.000;2024-03-02T05:17:36;44.20;;;28.00;;
48897;SDS011;34713;50.038;20.000;2024-03-02T05:20:04;42.50;;;26.90;;
48897;SDS011;34713;50.038;20.000;2024-03-02T05:22:34;39.80;;;27.90;;
48897;SDS011;34713;50.038;20.000;2024-03-02T05:25:02;40.20;;;26.80;;
48897;SDS011;34713;50.038;20.000;2024-03-02T05:27:29;39.90;;;27.40;;
48897;SDS011;34713;50.038;20.000;2024-03-02T05:29:56;42.70;;;27.70;;
48897;SDS011;34713;50.038;20.000;2024-03-02T05:32:23;43.60;;;28.00;;
48897;SDS011;34713;50.038;20.000;2024-03-02T05:34:50;39.90;;;26.90;;
48897;SDS011;34713;50.038;20.000;2024-03-02T05:37:19;41.10;;;27.40;;
48897;SDS011;34713;50.038;20.000;2024-03-02T05:39:46;45.50;;;26.70;;
48897;SDS011;34713;50.038;20.000;2024-03-02T05:42:12;37.90;;;26.20;;
48897;SDS011;34713;50.038;20.000;2024-03-02T05:44:39;39.00;;;26.20;;
48897;SDS011;34713;50.038;20.000;2024-03-02T05:47:05;37.70;;;25.80;;
48897;SDS011;34713;50.038;20.000;2024-03-02T05:49:35;36.40;;;24.80;;
48897;SDS011;34713;50.038;20.000;2024-03-02T05:52:02;40.60;;;26.60;;
48897;SDS011;34713;50.038;20.000;2024-03-02T05:54:29;37.20;;;26.00;;
48897;SDS011;34713;50.038;20.000;2024-03-02T05:56:55;39.40;;;26.40;;
48897;SDS011;34713;50.038;20.000;2024-03-02T05:59:22;41.10;;;27.00;;
48897;SDS011;34713;50.038;20.000;2024-03-02T06:01:48;41.50;;;27.00;;
48897;SDS011;34713;50.038;20.000;2024-03-02T06:04:18;39.60;;;27.30;;
48897;SDS011;34713;50.038;20.000;2024-03-02T06:06:44;38.30;;;26.20;;
48897;SDS011;34713;50.038;20.000;2024-03-02T06:09:11;36.10;;;25.80;;
48897;SDS011;34713;50.038;20.000;2024-03-02T06:11:39;38.40;;;26.50;;
48897;SDS011;34713;50.038;20.000;2024-03-02T06:14:07;42.80;;;28.30;;
48897;SDS011;34713;50.038;20.000;2024-03-02T06:16:34;37.70;;;26.40;;
48897;SDS011;34713;50.038;20.000;2024-03-02T06:19:01;39.80;;;26.30;;
48897;SDS011;34713;50.038;20.000;2024-03-02T06:21:28;41.40;;;25.70;;
48897;SDS011;34713;50.038;20.000;2024-03-02T06:23:54;41.50;;;25.80;;
48897;SDS011;34713;50.038;20.000;2024-03-02T06:26:21;36.30;;;25.50;;
48897;SDS011;34713;50.038;20.000;2024-03-02T06:28:48;37.60;;;26.00;;
48897;SDS011;34713;50.038;20.000;2024-03-02T06:31:14;39.80;;;26.90;;
48897;SDS011;34713;50.038;20.000;2024-03-02T06:33:41;47.10;;;29.60;;
48897;SDS011;34713;50.038;20.000;2024-03-02T06:36:08;46.90;;;30.50;;
48897;SDS011;34713;50.038;20.000;2024-03-02T06:38:35;46.20;;;29.90;;
48897;SDS011;34713;50.038;20.000;2024-03-02T06:41:02;45.10;;;29.60;;
48897;SDS011;34713;50.038;20.000;2024-03-02T06:43:29;42.30;;;28.90;;
48897;SDS011;34713;50.038;20.000;2024-03-02T06:45:55;42.10;;;28.90;;
48897;SDS011;34713;50.038;20.000;2024-03-02T06:48:22;38.50;;;27.30;;
48897;SDS011;34713;50.038;20.000;2024-03-02T06:50:49;39.70;;;26.50;;
48897;SDS011;34713;50.038;20.000;2024-03-02T06:53:16;43.50;;;27.40;;
48897;SDS011;34713;50.038;20.000;2024-03-02T06:55:43;40.00;;;25.80;;
48897;SDS011;34713;50.038;20.000;2024-03-02T06:58:13;36.70;;;25.10;;
48897;SDS011;34713;50.038;20.000;2024-03-02T07:00:41;34.90;;;24.80;;
48897;SDS011;34713;50.038;20.000;2024-03-02T07:03:08;37.00;;;25.60;;
48897;SDS011;34713;50.038;20.000;2024-03-02T07:05:36;38.10;;;25.60;;
48897;SDS011;34713;50.038;20.000;2024-03-02T07:08:03;35.70;;;24.50;;
48897;SDS011;34713;50.038;20.000;2024-03-02T07:10:31;40.10;;;25.80;;
48897;SDS011;34713;50.038;20.000;2024-03-02T07:12:58;39.30;;;26.60;;
48897;SDS011;34713;50.038;20.000;2024-03-02T07:15:24;38.40;;;26.00;;
48897;SDS011;34713;50.038;20.000;2024-03-02T07:18:05;36.40;;;25.40;;
48897;SDS011;34713;50.038;20.000;2024-03-02T07:20:31;38.60;;;28.00;;
48897;SDS011;34713;50.038;20.000;2024-03-02T07:22:58;39.20;;;26.80;;
48897;SDS011;34713;50.038;20.000;2024-03-02T07:25:25;40.50;;;26.40;;
48897;SDS011;34713;50.038;20.000;2024-03-02T07:27:51;37.40;;;25.90;;
48897;SDS011;34713;50.038;20.000;2024-03-02T07:30:19;37.00;;;27.40;;
48897;SDS011;34713;50.038;20.000;2024-03-02T07:32:45;40.60;;;27.60;;
48897;SDS011;34713;50.038;20.000;2024-03-02T07:35:12;38.10;;;27.20;;
48897;SDS011;34713;50.038;20.000;2024-03-02T07:37:41;44.30;;;28.20;;
48897;SDS011;34713;50.038;20.000;2024-03-02T07:40:08;47.10;;;30.50;;
48897;SDS011;34713;50.038;20.000;2024-03-02T07:42:38;38.40;;;27.40;;
48897;SDS011;34713;50.038;20.000;2024-03-02T07:45:05;41.00;;;26.50;;
48897;SDS011;34713;50.038;20.000;2024-03-02T07:47:33;34.50;;;24.80;;
48897;SDS011;34713;50.038;20.000;2024-03-02T07:50:00;38.20;;;24.70;;
48897;SDS011;34713;50.038;20.000;2024-03-02T07:52:27;42.20;;;25.30;;
48897;SDS011;34713;50.038;20.000;2024-03-02T07:54:54;36.10;;;25.00;;
48897;SDS011;34713;50.038;20.000;2024-03-02T07:57:21;35.90;;;23.90;;
48897;SDS011;34713;50.038;20.000;2024-03-02T07:59:47;36.70;;;25.10;;
48897;SDS011;34713;50.038;20.000;2024-03-02T08:02:15;40.40;;;25.50;;
48897;SDS011;34713;50.038;20.000;2024-03-02T08:04:42;36.40;;;25.10;;
48897;SDS011;34713;50.038;20.000;2024-03-02T08:07:08;39.40;;;24.90;;
48897;SDS011;34713;50.038;20.000;2024-03-02T08:09:35;34.60;;;24.40;;
48897;SDS011;34713;50.038;20.000;2024-03-02T08:12:02;37.50;;;25.30;;
48897;SDS011;34713;50.038;20.000;2024-03-02T08:14:28;42.50;;;27.70;;
48897;SDS011;34713;50.038;20.000;2024-03-02T08:16:55;41.90;;;26.00;;
48897;SDS011;34713;50.038;20.000;2024-03-02T08:19:22;38.90;;;26.60;;
48897;SDS011;34713;50.038;20.000;2024-03-02T08:21:49;40.30;;;27.10;;
48897;SDS011;34713;50.038;20.000;2024-03-02T08:24:16;35.80;;;26.70;;
48897;SDS011;34713;50.038;20.000;2024-03-02T08:26:42;37.80;;;25.70;;
48897;SDS011;34713;50.038;20.000;2024-03-02T08:29:09;39.10;;;26.50;;
48897;SDS011;34713;50.038;20.000;2024-03-02T08:31:35;37.30;;;26.00;;
48897;SDS011;34713;50.038;20.000;2024-03-02T08:34:02;36.10;;;26.10;;
48897;SDS011;34713;50.038;20.000;2024-03-02T08:36:28;39.50;;;26.20;;
48897;SDS011;34713;50.038;20.000;2024-03-02T08:38:55;36.10;;;26.10;;
48897;SDS011;34713;50.038;20.000;2024-03-02T08:41:21;43.30;;;24.80;;
48897;SDS011;34713;50.038;20.000;2024-03-02T08:43:48;35.20;;;25.80;;
48897;SDS011;34713;50.038;20.000;2024-03-02T08:46:15;38.30;;;24.90;;
48897;SDS011;34713;50.038;20.000;2024-03-02T08:48:41;38.00;;;25.60;;
48897;SDS011;34713;50.038;20.000;2024-03-02T08:51:08;38.60;;;25.40;;
48897;SDS011;34713;50.038;20.000;2024-03-02T08:53:36;36.80;;;25.20;;
48897;SDS011;34713;50.038;20.000;2024-03-02T08:56:03;41.10;;;25.20;;
48897;SDS011;34713;50.038;20.000;2024-03-02T08:58:31;35.50;;;24.00;;
48897;SDS011;34713;50.038;20.000;2024-03-02T09:00:58;36.20;;;24.60;;
48897;SDS011;34713;50.038;20.000;2024-03-02T09:03:25;37.20;;;23.90;;
48897;SDS011;34713;50.038;20.000;2024-03-02T09:05:51;36.00;;;23.70;;
48897;SDS011;34713;50.038;20.000;2024-03-02T09:08:18;35.90;;;23.60;;
48897;SDS011;34713;50.038;20.000;2024-03-02T09:10:44;33.10;;;22.30;;
48897;SDS011;34713;50.038;20.000;2024-03-02T09:13:11;36.80;;;24.70;;
48897;SDS011;34713;50.038;20.000;2024-03-02T09:15:37;34.00;;;23.10;;
48897;SDS011;34713;50.038;20.000;2024-03-02T09:18:05;35.10;;;23.60;;
48897;SDS011;34713;50.038;20.000;2024-03-02T09:20:33;37.50;;;23.40;;
48897;SDS011;34713;50.038;20.000;2024-03-02T09:22:59;37.50;;;23.60;;
48897;SDS011;34713;50.038;20.000;2024-03-02T09:25:26;33.70;;;23.40;;
48897;SDS011;34713;50.038;20.000;2024-03-02T09:27:52;36.50;;;25.30;;
48897;SDS011;34713;50.038;20.000;2024-03-02T09:30:19;37.40;;;24.70;;
48897;SDS011;34713;50.038;20.000;2024-03-02T09:32:45;36.00;;;23.40;;
48897;SDS011;34713;50.038;20.000;2024-03-02T09:35:12;33.40;;;23.00;;
48897;SDS011;34713;50.038;20.000;2024-03-02T09:37:38;38.90;;;24.30;;
48897;SDS011;34713;50.038;20.000;2024-03-02T09:40:05;32.20;;;22.10;;
48897;SDS011;34713;50.038;20.000;2024-03-02T09:42:32;32.00;;;23.20;;
48897;SDS011;34713;50.038;20.000;2024-03-02T09:44:59;35.70;;;22.80;;
48897;SDS011;34713;50.038;20.000;2024-03-02T09:47:25;35.00;;;23.20;;
48897;SDS011;34713;50.038;20.000;2024-03-02T09:49:52;36.60;;;24.60;;
48897;SDS011;34713;50.038;20.000;2024-03-02T09:52:19;35.60;;;24.30;;
48897;SDS011;34713;50.038;20.000;2024-03-02T09:54:47;42.70;;;24.80;;
48897;SDS011;34713;50.038;20.000;2024-03-02T09:57:14;34.80;;;25.40;;
48897;SDS011;34713;50.038;20.000;2024-03-02T09:59:40;42.10;;;26.40;;
48897;SDS011;34713;50.038;20.000;2024-03-02T10:02:07;37.90;;;26.30;;
48897;SDS011;34713;50.038;20.000;2024-03-02T10:04:34;39.70;;;25.00;;
48897;SDS011;34713;50.038;20.000;2024-03-02T10:07:13;42.60;;;25.80;;
48897;SDS011;34713;50.038;20.000;2024-03-02T10:09:47;43.90;;;25.70;;
48897;SDS011;34713;50.038;20.000;2024-03-02T10:12:15;39.30;;;27.10;;
48897;SDS011;34713;50.038;20.000;2024-03-02T10:14:42;43.40;;;28.40;;
48897;SDS011;34713;50.038;20.000;2024-03-02T10:17:10;39.60;;;28.10;;
48897;SDS011;34713;50.038;20.000;2024-03-02T10:19:38;45.60;;;30.30;;
48897;SDS011;34713;50.038;20.000;2024-03-02T10:22:06;43.60;;;30.20;;
48897;SDS011;34713;50.038;20.000;2024-03-02T10:24:35;40.30;;;26.90;;
48897;SDS011;34713;50.038;20.000;2024-03-02T10:27:06;38.50;;;27.40;;
48897;SDS011;34713;50.038;20.000;2024-03-02T10:29:53;38.00;;;25.90;;
48897;SDS011;34713;50.038;20.000;2024-03-02T10:32:20;35.60;;;25.40;;
48897;SDS011;34713;50.038;20.000;2024-03-02T10:34:49;34.70;;;25.50;;
48897;SDS011;34713;50.038;20.000;2024-03-02T10:37:16;36.20;;;26.40;;
48897;SDS011;34713;50.038;20.000;2024-03-02T10:39:46;33.70;;;24.80;;
48897;SDS011;34713;50.038;20.000;2024-03-02T10:42:12;36.90;;;25.70;;
48897;SDS011;34713;50.038;20.000;2024-03-02T10:44:40;34.90;;;25.00;;
48897;SDS011;34713;50.038;20.000;2024-03-02T10:47:07;38.20;;;25.90;;
48897;SDS011;34713;50.038;20.000;2024-03-02T10:49:35;34.50;;;25.80;;
48897;SDS011;34713;50.038;20.000;2024-03-02T10:52:02;38.30;;;25.00;;
48897;SDS011;34713;50.038;20.000;2024-03-02T10:54:30;37.00;;;26.10;;
48897;SDS011;34713;50.038;20.000;2024-03-02T10:57:02;35.20;;;24.60;;
48897;SDS011;34713;50.038;20.000;2024-03-02T10:59:35;34.70;;;25.40;;
48897;SDS011;34713;50.038;20.000;2024-03-02T11:02:03;35.30;;;25.30;;
48897;SDS011;34713;50.038;20.000;2024-03-02T11:04:30;37.70;;;26.00;;
48897;SDS011;34713;50.038;20.000;2024-03-02T11:07:04;34.60;;;24.70;;
48897;SDS011;34713;50.038;20.000;2024-03-02T11:09:33;33.80;;;23.40;;
48897;SDS011;34713;50.038;20.000;2024-03-02T11:12:19;33.10;;;22.90;;
48897;SDS011;34713;50.038;20.000;2024-03-02T11:14:49;40.30;;;24.60;;
48897;SDS011;34713;50.038;20.000;2024-03-02T11:17:18;34.80;;;23.60;;
48897;SDS011;34713;50.038;20.000;2024-03-02T11:19:45;28.50;;;22.00;;
48897;SDS011;34713;50.038;20.000;2024-03-02T11:22:12;33.10;;;22.60;;
48897;SDS011;34713;50.038;20.000;2024-03-02T11:24:40;31.90;;;22.30;;
48897;SDS011;34713;50.038;20.000;2024-03-02T11:27:14;28.60;;;21.60;;
48897;SDS011;34713;50.038;20.000;2024-03-02T11:29:42;33.10;;;22.20;;
48897;SDS011;34713;50.038;20.000;2024-03-02T11:32:16;37.10;;;22.60;;
48897;SDS011;34713;50.038;20.000;2024-03-02T11:34:48;31.00;;;22.90;;
48897;SDS011;34713;50.038;20.000;2024-03-02T11:37:16;31.50;;;22.70;;
48897;SDS011;34713;50.038;20.000;2024-03-02T11:39:46;32.30;;;23.40;;
48897;SDS011;34713;50.038;20.000;2024-03-02T11:42:15;33.80;;;24.30;;
48897;SDS011;34713;50.038;20.000;2024-03-02T11:44:43;31.90;;;22.40;;
48897;SDS011;34713;50.038;20.000;2024-03-02T11:47:12;35.00;;;23.00;;
48897;SDS011;34713;50.038;20.000;2024-03-02T11:49:41;32.20;;;22.50;;
48897;SDS011;34713;50.038;20.000;2024-03-02T11:52:10;33.00;;;22.60;;
48897;SDS011;34713;50.038;20.000;2024-03-02T11:54:38;37.00;;;23.50;;
48897;SDS011;34713;50.038;20.000;2024-03-02T11:57:06;33.70;;;23.80;;
48897;SDS011;34713;50.038;20.000;2024-03-02T11:59:33;39.80;;;23.60;;
48897;SDS011;34713;50.038;20.000;2024-03-02T12:02:00;34.30;;;24.00;;
48897;SDS011;34713;50.038;20.000;2024-03-02T12:04:26;34.10;;;23.30;;
48897;SDS011;34713;50.038;20.000;2024-03-02T12:06:56;33.60;;;24.10;;
48897;SDS011;34713;50.038;20.000;2024-03-02T12:09:27;34.70;;;25.30;;
48897;SDS011;34713;50.038;20.000;2024-03-02T12:14:34;31.90;;;24.10;;
48897;SDS011;34713;50.038;20.000;2024-03-02T12:17:02;35.70;;;25.10;;
48897;SDS011;34713;50.038;20.000;2024-03-02T12:19:30;36.20;;;24.40;;
48897;SDS011;34713;50.038;20.000;2024-03-02T12:21:57;37.70;;;26.20;;
48897;SDS011;34713;50.038;20.000;2024-03-02T12:24:24;35.90;;;25.30;;
48897;SDS011;34713;50.038;20.000;2024-03-02T12:26:52;34.90;;;26.10;;
48897;SDS011;34713;50.038;20.000;2024-03-02T12:29:19;36.40;;;26.70;;
48897;SDS011;34713;50.038;20.000;2024-03-02T12:31:50;37.50;;;25.80;;
48897;SDS011;34713;50.038;20.000;2024-03-02T12:34:21;44.60;;;26.50;;
48897;SDS011;34713;50.038;20.000;2024-03-02T12:36:49;33.70;;;26.00;;
48897;SDS011;34713;50.038;20.000;2024-03-02T12:39:18;36.20;;;26.70;;
48897;SDS011;34713;50.038;20.000;2024-03-02T12:41:46;31.50;;;24.30;;
48897;SDS011;34713;50.038;20.000;2024-03-02T12:44:13;32.80;;;24.00;;
48897;SDS011;34713;50.038;20.000;2024-03-02T12:46:39;32.70;;;22.80;;
48897;SDS011;34713;50.038;20.000;2024-03-02T12:49:09;29.80;;;22.70;;
48897;SDS011;34713;50.038;20.000;2024-03-02T12:51:40;37.70;;;22.80;;
48897;SDS011;34713;50.038;20.000;2024-03-02T12:54:07;31.90;;;23.20;;
48897;SDS011;34713;50.038;20.000;2024-03-02T12:56:35;32.40;;;23.70;;
48897;SDS011;34713;50.038;20.000;2024-03-02T12:59:02;31.80;;;22.80;;
48897;SDS011;34713;50.038;20.000;2024-03-02T13:01:29;37.00;;;22.40;;
48897;SDS011;34713;50.038;20.000;2024-03-02T13:03:55;30.30;;;20.90;;
48897;SDS011;34713;50.038;20.000;2024-03-02T13:06:23;29.90;;;22.30;;
48897;SDS011;34713;50.038;20.000;2024-03-02T13:08:50;31.40;;;21.60;;
48897;SDS011;34713;50.038;20.000;2024-03-02T13:11:17;34.40;;;23.60;;
48897;SDS011;34713;50.038;20.000;2024-03-02T13:13:43;35.50;;;23.60;;
48897;SDS011;34713;50.038;20.000;2024-03-02T13:16:10;32.90;;;23.20;;
48897;SDS011;34713;50.038;20.000;2024-03-02T13:18:40;33.30;;;22.00;;
48897;SDS011;34713;50.038;20.000;2024-03-02T13:21:08;31.30;;;21.30;;
48897;SDS011;34713;50.038;20.000;2024-03-02T13:23:34;30.10;;;20.70;;
48897;SDS011;34713;50.038;20.000;2024-03-02T13:26:01;29.10;;;19.30;;
48897;SDS011;34713;50.038;20.000;2024-03-02T13:28:27;28.80;;;20.00;;
48897;SDS011;34713;50.038;20.000;2024-03-02T13:30:54;30.70;;;19.40;;
48897;SDS011;34713;50.038;20.000;2024-03-02T13:33:20;27.30;;;18.70;;
48897;SDS011;34713;50.038;20.000;2024-03-02T13:35:50;31.40;;;18.50;;
48897;SDS011;34713;50.038;20.000;2024-03-02T13:38:18;25.60;;;18.90;;
48897;SDS011;34713;50.038;20.000;2024-03-02T13:40:46;25.30;;;18.30;;
48897;SDS011;34713;50.038;20.000;2024-03-02T13:43:13;24.80;;;16.60;;
48897;SDS011;34713;50.038;20.000;2024-03-02T13:45:40;29.50;;;18.00;;
48897;SDS011;34713;50.038;20.000;2024-03-02T13:48:07;26.50;;;17.30;;
48897;SDS011;34713;50.038;20.000;2024-03-02T13:50:33;28.10;;;18.10;;
48897;SDS011;34713;50.038;20.000;2024-03-02T13:53:00;25.10;;;18.70;;
48897;SDS011;34713;50.038;20.000;2024-03-02T13:55:26;25.70;;;17.40;;
48897;SDS011;34713;50.038;20.000;2024-03-02T13:57:53;29.10;;;18.20;;
48897;SDS011;34713;50.038;20.000;2024-03-02T14:00:19;28.60;;;19.30;;
48897;SDS011;34713;50.038;20.000;2024-03-02T14:02:46;27.90;;;18.80;;
48897;SDS011;34713;50.038;20.000;2024-03-02T14:05:15;27.20;;;17.60;;
48897;SDS011;34713;50.038;20.000;2024-03-02T14:07:42;27.80;;;16.70;;
48897;SDS011;34713;50.038;20.000;2024-03-02T14:10:10;24.20;;;16.80;;
48897;SDS011;34713;50.038;20.000;2024-03-02T14:12:37;27.60;;;18.00;;
48897;SDS011;34713;50.038;20.000;2024-03-02T14:15:04;28.60;;;18.70;;
48897;SDS011;34713;50.038;20.000;2024-03-02T14:17:31;33.50;;;18.80;;
48897;SDS011;34713;50.038;20.000;2024-03-02T14:20:00;28.30;;;18.80;;
48897;SDS011;34713;50.038;20.000;2024-03-02T14:22:27;26.40;;;18.00;;
48897;SDS011;34713;50.038;20.000;2024-03-02T14:24:53;27.40;;;18.10;;
48897;SDS011;34713;50.038;20.000;2024-03-02T14:27:20;28.90;;;19.00;;